Time;durP1;ratioP1;P1;durP2;ratioP2;P2;SDS_P1;SDS_P2;PMS_P1;PMS_P2;Temp;Humidity;BMP_temperature;BMP_pressure;BME280_temperature;BME280_humidity;BME280_pressure;Samples;Min_cycle;Max_cycle;Signal;HPM_P1;HPM_P2
2022/04/22 00:02:26;;;;;;;20.80;19.43;;;;;;;12.23;82.29;98775.25;5065459;28;20512;-72
2022/04/22 00:04:53;;;;;;;19.80;18.63;;;;;;;12.17;82.77;98801.78;5066447;28;20128;-74
2022/04/22 00:07:20;;;;;;;32.90;30.37;;;;;;;12.01;82.62;98776.31;5065627;28;20092;-71
2022/04/22 00:09:47;;;;;;;30.50;28.63;;;;;;;12.08;82.45;98773.81;5067773;28;20052;-73
2022/04/22 00:12:13;;;;;;;29.47;27.13;;;;;;;12.13;82.60;98770.00;5069396;28;20058;-72
2022/04/22 00:14:40;;;;;;;31.33;28.93;;;;;;;12.06;82.88;98776.13;5064689;28;20048;-72
2022/04/22 00:17:07;;;;;;;29.83;27.30;;;;;;;12.00;82.77;98777.47;5069986;28;20083;-71
2022/04/22 00:19:34;;;;;;;29.07;27.03;;;;;;;11.97;83.20;98775.34;5067458;28;20076;-74
2022/04/22 00:22:01;;;;;;;25.33;23.93;;;;;;;11.88;83.42;98780.13;5069669;28;20050;-73
2022/04/22 00:24:27;;;;;;;22.27;21.03;;;;;;;11.74;84.05;98779.47;5063634;28;20147;-72
2022/04/22 00:26:55;;;;;;;21.67;20.50;;;;;;;11.84;83.46;98779.97;5069949;28;20469;-72
2022/04/22 00:29:21;;;;;;;21.60;20.40;;;;;;;11.83;83.37;98750.34;5066655;28;20080;-71
2022/04/22 00:31:48;;;;;;;21.67;19.63;;;;;;;12.09;83.04;98769.84;5068498;28;20143;-71
2022/04/22 00:34:15;;;;;;;20.20;19.03;;;;;;;12.02;83.06;98741.56;5053245;28;20044;-72
2022/04/22 00:36:42;;;;;;;21.77;18.60;;;;;;;12.06;82.84;98722.97;5067781;28;20127;-71
2022/04/22 00:39:09;;;;;;;18.47;17.13;;;;;;;12.11;83.00;98729.56;5068701;28;20187;-71
2022/04/22 00:41:36;;;;;;;16.00;15.10;;;;;;;12.09;82.81;98702.72;5068208;28;20084;-72
2022/04/22 00:44:04;;;;;;;16.50;15.70;;;;;;;12.14;82.80;98712.09;5067163;28;20076;-72
2022/04/22 00:46:30;;;;;;;17.03;15.53;;;;;;;12.32;82.62;98720.06;5066146;28;20174;-73
2022/04/22 00:48:58;;;;;;;17.30;15.87;;;;;;;12.32;82.58;98719.25;5066954;28;20063;-72
2022/04/22 00:51:24;;;;;;;17.17;15.93;;;;;;;12.27;82.77;98716.63;5074364;28;20494;-71
2022/04/22 00:53:52;;;;;;;17.93;16.90;;;;;;;12.34;82.56;98719.69;5072784;28;20087;-72
2022/04/22 00:56:19;;;;;;;21.20;19.27;;;;;;;11.77;82.86;98653.78;5050832;28;20131;-75
2022/04/22 00:58:49;;;;;;;26.50;24.60;;;;;;;11.90;82.64;98654.75;5068729;28;20397;-75
2022/04/22 01:01:16;;;;;;;28.67;26.77;;;;;;;12.16;82.74;98687.38;5070884;28;20068;-76
2022/04/22 01:12:08;;;;;;;34.08;31.48;;;;;;;12.27;82.84;98705.41;5066687;28;20131;-74
2022/04/22 01:14:36;;;;;;;32.30;29.70;;;;;;;12.12;82.42;98698.41;5061063;28;20052;-75
2022/04/22 01:17:04;;;;;;;33.77;30.57;;;;;;;11.97;82.16;98691.41;5070926;28;20075;-74
2022/04/22 01:19:31;;;;;;;33.27;30.77;;;;;;;11.85;81.55;98685.69;5069212;28;20195;-75
2022/04/22 01:21:59;;;;;;;31.77;29.33;;;;;;;11.41;81.11;98648.63;5068720;28;20139;-75
2022/04/22 01:24:27;;;;;;;31.60;29.10;;;;;;;11.17;81.10;98674.31;5064177;28;20087;-75
2022/04/22 01:26:55;;;;;;;30.47;28.20;;;;;;;10.97;81.08;98672.19;5051682;28;20058;-76
2022/04/22 01:29:22;;;;;;;31.60;29.10;;;;;;;10.76;81.76;98650.50;5071583;28;20098;-75
2022/04/22 01:31:50;;;;;;;32.17;29.10;;;;;;;10.80;81.73;98637.56;5074166;28;20072;-76
2022/04/22 01:34:17;;;;;;;32.40;29.37;;;;;;;10.54;81.80;98604.06;5071449;28;20463;-74
2022/04/22 01:36:44;;;;;;;32.47;29.87;;;;;;;10.64;82.13;98625.25;5073748;28;20056;-75
2022/04/22 01:39:11;;;;;;;32.03;29.00;;;;;;;10.75;82.54;98609.78;5057390;28;20090;-74
2022/04/22 01:41:38;;;;;;;31.30;28.83;;;;;;;10.89;83.06;98659.88;5057751;28;20072;-73
2022/04/22 01:44:05;;;;;;;34.47;30.23;;;;;;;10.76;82.76;98644.94;5068647;28;20510;-74
2022/04/22 01:46:32;;;;;;;34.00;31.20;;;;;;;10.66;83.16;98618.16;5073714;28;20076;-74
2022/04/22 01:48:59;;;;;;;32.63;30.00;;;;;;;10.96;83.15;98649.03;5066713;28;20045;-74
2022/04/22 01:51:25;;;;;;;34.90;32.40;;;;;;;11.09;83.45;98645.25;5074677;28;20076;-74
2022/04/22 01:53:52;;;;;;;34.67;31.90;;;;;;;11.02;83.61;98619.78;5071419;28;20136;-74
2022/04/22 01:56:20;;;;;;;33.63;30.60;;;;;;;11.18;83.84;98638.81;5071994;28;20057;-72
2022/04/22 01:58:47;;;;;;;34.70;31.90;;;;;;;10.90;83.97;98583.31;5066460;28;20439;-72
2022/04/22 02:01:14;;;;;;;32.07;29.57;;;;;;;11.22;84.05;98628.63;5067211;28;20121;-71
2022/04/22 02:03:41;;;;;;;32.60;30.13;;;;;;;10.90;84.01;98561.78;5074792;28;20135;-74
2022/04/22 02:06:08;;;;;;;31.27;29.07;;;;;;;10.93;83.87;98568.69;5075370;28;20141;-74
2022/04/22 02:08:36;;;;;;;28.20;26.40;;;;;;;11.26;84.08;98621.22;5072233;28;20049;-75
2022/04/22 02:11:04;;;;;;;25.00;23.33;;;;;;;11.38;83.95;98601.78;5061108;28;20056;-75
2022/04/22 02:13:36;;;;;;;25.43;23.33;;;;;;;11.30;83.78;98569.09;5069892;28;20053;-74
2022/04/22 02:16:05;;;;;;;23.00;21.70;;;;;;;11.18;83.82;98541.03;5072459;28;20044;-73
2022/04/22 02:18:36;;;;;;;21.80;20.43;;;;;;;11.33;83.98;98546.91;5067145;28;20512;-73
2022/04/22 02:21:07;;;;;;;24.83;22.87;;;;;;;11.26;83.95;98520.63;5072017;28;20131;-73
2022/04/22 02:23:34;;;;;;;;;;;;;;;11.61;83.96;98546.44;5068989;28;20080;-73
2022/04/22 02:26:02;;;;;;;22.70;21.20;;;;;;;11.54;83.68;98532.19;5072913;28;20014;-72
2022/04/22 02:28:32;;;;;;;22.63;20.80;;;;;;;11.58;83.99;98531.16;5052970;28;20459;-71
2022/04/22 02:31:06;;;;;;;21.30;20.10;;;;;;;11.56;84.29;98546.66;5055194;28;20040;-72
2022/04/22 02:33:35;;;;;;;21.73;20.43;;;;;;;11.67;84.16;98563.88;5071615;28;20095;-71
2022/04/22 02:36:03;;;;;;;23.83;21.93;;;;;;;11.71;83.99;98573.22;5078037;28;20113;-72
2022/04/22 02:38:31;;;;;;;33.40;30.37;;;;;;;11.43;83.60;98550.50;5046064;28;20736;-73
2022/04/22 02:46:30;;;;;;;32.17;29.30;;;;;;;11.41;82.93;98556.41;5072734;28;20123;-74
2022/04/22 02:48:59;;;;;;;31.87;29.17;;;;;;;11.31;83.16;98548.38;5068950;28;20044;-74
2022/04/22 02:51:27;;;;;;;32.20;29.90;;;;;;;11.45;83.27;98560.16;5068439;28;20412;-74
2022/04/22 02:53:53;;;;;;;42.20;30.50;;;;;;;11.48;83.10;98569.84;5070002;28;20079;-74
2022/04/22 02:56:22;;;;;;;35.10;29.53;;;;;;;11.33;83.50;98546.09;5071775;28;20106;-74
2022/04/22 02:58:49;;;;;;;33.70;30.10;;;;;;;11.52;83.49;98574.47;5068123;28;20102;-74
2022/04/22 03:01:16;;;;;;;34.53;30.97;;;;;;;11.51;83.52;98564.41;5068778;28;20087;-74
2022/04/22 03:03:47;;;;;;;34.43;30.87;;;;;;;11.32;83.21;98539.69;5070187;28;20052;-73
2022/04/22 03:06:14;;;;;;;34.30;31.37;;;;;;;11.61;83.34;98574.41;5072870;28;20587;-73
2022/04/22 03:08:41;;;;;;;36.50;32.70;;;;;;;11.37;83.33;98524.69;5072966;28;20131;-74
2022/04/22 03:11:08;;;;;;;33.27;30.67;;;;;;;11.72;83.72;98578.47;5075960;28;20094;-72
2022/04/22 03:13:35;;;;;;;34.77;31.70;;;;;;;11.69;83.63;98555.94;5068989;28;20578;-72
2022/04/22 03:16:03;;;;;;;32.20;29.30;;;;;;;11.74;83.51;98545.41;5071458;28;20131;-72
2022/04/22 03:18:30;;;;;;;33.03;30.40;;;;;;;11.70;83.61;98550.03;5071197;28;20587;-71
2022/04/22 03:20:58;;;;;;;32.47;29.73;;;;;;;11.71;83.39;98550.84;5072518;28;20102;-72
2022/04/22 03:23:25;;;;;;;33.13;30.23;;;;;;;11.77;83.34;98555.09;5067114;28;20136;-74
2022/04/22 03:25:54;;;;;;;34.10;31.77;;;;;;;11.95;83.19;98583.81;5081724;28;20095;-74
2022/04/22 03:28:23;;;;;;;32.83;30.42;;;;;;;11.87;83.44;98554.75;5070758;28;20051;-72
2022/04/22 03:30:50;;;;;;;34.50;31.43;;;;;;;11.82;83.48;98540.91;5067527;28;20053;-73
2022/04/22 03:33:19;;;;;;;36.53;33.23;;;;;;;12.07;83.50;98570.75;5070832;28;20093;-72
2022/04/22 03:35:50;;;;;;;37.17;33.67;;;;;;;12.06;83.39;98555.09;5074067;28;20059;-72
2022/04/22 03:38:19;;;;;;;44.33;34.30;;;;;;;12.20;83.46;98562.41;5071865;28;20150;-72
2022/04/22 03:40:47;;;;;;;37.10;33.80;;;;;;;12.17;83.59;98558.34;5066987;28;20044;-72
2022/04/22 03:43:15;;;;;;;37.90;34.23;;;;;;;12.29;83.46;98563.19;5062422;28;20136;-72
2022/04/22 03:45:42;;;;;;;36.23;33.27;;;;;;;12.19;83.36;98541.19;5068717;28;20139;-71
2022/04/22 03:48:11;;;;;;;34.20;31.53;;;;;;;12.35;83.13;98555.41;5070707;28;20072;-72
2022/04/22 03:50:38;;;;;;;34.33;31.10;;;;;;;12.35;83.03;98553.44;5049662;28;20131;-73
2022/04/22 03:53:06;;;;;;;33.50;30.90;;;;;;;12.25;83.17;98532.25;5073671;28;20075;-73
2022/04/22 03:55:33;;;;;;;32.87;30.67;;;;;;;12.29;83.08;98526.78;5066930;28;20144;-73
2022/04/22 03:58:12;;;;;;;32.17;29.57;;;;;;;12.33;83.15;98550.13;5067749;28;20155;-73
2022/04/22 04:00:48;;;;;;;29.27;27.08;;;;;;;12.32;83.17;98537.31;5049309;28;20048;-73
2022/04/22 04:03:21;;;;;;;28.10;26.37;;;;;;;12.32;83.13;98548.50;5062358;28;20044;-73
2022/04/22 04:05:52;;;;;;;26.87;25.23;;;;;;;12.22;83.10;98520.94;5071393;28;20053;-73
2022/04/22 04:08:21;;;;;;;28.03;26.23;;;;;;;12.24;83.13;98513.84;5066607;28;20491;-72
2022/04/22 04:16:21;;;;;;;24.57;22.90;;;;;;;12.26;82.96;98503.09;5063106;28;20503;-72
2022/04/22 04:18:48;;;;;;;24.00;22.50;;;;;;;12.28;83.01;98497.19;5069284;28;20048;-73
2022/04/22 04:24:02;;;;;;;22.60;21.10;;;;;;;12.34;82.36;98515.38;5075716;28;20052;-74
2022/04/22 04:26:29;;;;;;;22.30;20.80;;;;;;;12.24;82.23;98485.00;5070192;28;20080;-72
2022/04/22 04:28:56;;;;;;;24.23;22.77;;;;;;;12.29;82.06;98498.81;5067704;28;20045;-72
2022/04/22 04:31:23;;;;;;;21.57;20.40;;;;;;;12.09;82.16;98466.88;5077221;28;20064;-72
2022/04/22 04:33:50;;;;;;;21.07;19.57;;;;;;;12.17;81.96;98485.59;5059755;28;20460;-73
2022/04/22 04:36:17;;;;;;;21.43;19.93;;;;;;;12.39;82.12;98518.00;5047485;28;20055;-73
2022/04/22 04:38:44;;;;;;;21.53;20.07;;;;;;;12.37;82.38;98499.88;5068588;28;20060;-74
2022/04/22 04:41:13;;;;;;;20.67;19.57;;;;;;;12.40;82.19;98504.81;5066214;28;20189;-74
2022/04/22 04:43:41;;;;;;;20.50;19.45;;;;;;;12.41;82.20;98498.88;5068016;28;20048;-73
2022/04/22 04:46:09;;;;;;;21.00;19.37;;;;;;;12.46;82.15;98511.84;5068227;28;20044;-73
2022/04/22 04:48:36;;;;;;;20.80;19.27;;;;;;;12.42;82.23;98508.91;5064996;28;20138;-73
2022/04/22 04:51:04;;;;;;;21.03;19.73;;;;;;;12.45;82.27;98508.22;5066413;28;20044;-73
2022/04/22 04:53:31;;;;;;;20.03;18.80;;;;;;;12.42;82.22;98500.50;5068596;28;20135;-72
2022/04/22 04:55:58;;;;;;;20.50;19.20;;;;;;;12.45;81.88;98508.22;5060924;28;20087;-72
2022/04/22 04:58:39;;;;;;;19.67;18.37;;;;;;;12.45;81.88;98502.63;5112645;27;20365;-71
2022/04/22 05:01:05;;;;;;;20.47;18.83;;;;;;;12.35;82.02;98483.44;5087748;28;20406;-71
2022/04/22 05:03:32;;;;;;;19.83;18.33;;;;;;;12.47;81.89;98497.50;5083050;28;20049;-70
2022/04/22 05:05:59;;;;;;;19.53;18.00;;;;;;;12.39;81.67;98481.59;5091950;28;20055;-70
2022/04/22 05:08:26;;;;;;;17.90;16.77;;;;;;;12.39;81.43;98487.19;5089187;28;20487;-71
2022/04/22 05:10:53;;;;;;;22.33;17.40;;;;;;;12.32;80.85;98487.75;5082970;28;20086;-68
2022/04/22 05:13:21;;;;;;;18.10;17.20;;;;;;;12.28;81.38;98481.22;5068584;28;20053;-70
2022/04/22 05:15:51;;;;;;;17.30;16.40;;;;;;;12.23;81.58;98489.78;5084313;28;20091;-70
2022/04/22 05:18:18;;;;;;;17.37;16.43;;;;;;;12.26;81.66;98474.31;5088012;28;20411;-70
2022/04/22 05:20:47;;;;;;;17.30;16.40;;;;;;;12.13;81.25;98458.63;5089586;28;20080;-70
2022/04/22 05:23:14;;;;;;;16.88;16.08;;;;;;;12.21;81.25;98471.72;5098071;28;20511;-70
2022/04/22 05:25:41;;;;;;;16.87;16.07;;;;;;;12.17;81.16;98473.56;5088520;28;20056;-71
2022/04/22 05:28:08;;;;;;;17.47;16.50;;;;;;;12.03;81.08;98469.06;5089763;28;20135;-70
2022/04/22 05:33:22;;;;;;;16.90;15.70;;;;;;;11.99;80.98;98496.06;5086494;28;20383;-70
2022/04/22 05:35:49;;;;;;;17.27;16.23;;;;;;;11.88;81.07;98483.66;5085426;28;20048;-70
2022/04/22 05:38:17;;;;;;;16.20;15.40;;;;;;;11.74;81.11;98466.28;5087967;28;20079;-71
2022/04/22 05:40:46;;;;;;;16.70;15.80;;;;;;;11.66;81.13;98469.94;5082820;28;20139;-72
2022/04/22 05:43:13;;;;;;;16.40;15.50;;;;;;;11.72;81.23;98482.56;5083928;28;20080;-72
2022/04/22 05:45:40;;;;;;;17.00;15.93;;;;;;;11.55;81.74;98470.34;5088160;28;20074;-70
2022/04/22 05:48:07;;;;;;;17.73;16.53;;;;;;;11.59;81.81;98482.50;5087820;28;20048;-74
2022/04/22 05:50:37;;;;;;;17.20;16.30;;;;;;;11.51;81.70;98469.38;5086981;28;20052;-74
2022/04/22 05:53:04;;;;;;;16.85;16.05;;;;;;;11.19;82.00;98408.59;5087836;28;20079;-71
2022/04/22 05:55:31;;;;;;;17.47;16.27;;;;;;;11.43;82.13;98449.88;5088142;28;20080;-73
2022/04/22 05:57:59;;;;;;;17.20;16.23;;;;;;;11.45;82.05;98459.53;5083589;28;20136;-72
2022/04/22 06:00:30;;;;;;;17.60;16.37;;;;;;;11.41;82.13;98447.41;5080945;28;20067;-73
2022/04/22 06:02:58;;;;;;;16.57;15.60;;;;;;;11.56;81.74;98465.59;5086660;28;20452;-71
2022/04/22 06:05:26;;;;;;;22.30;20.90;;;;;;;11.48;82.02;98450.47;5088128;28;20076;-70
2022/04/22 06:10:40;;;;;;;15.93;15.10;;;;;;;11.43;82.06;98444.28;5068651;28;20084;-69
2022/04/22 06:13:08;;;;;;;16.43;15.33;;;;;;;11.57;82.06;98472.81;5073428;28;20044;-69
2022/04/22 06:15:34;;;;;;;16.90;15.63;;;;;;;11.48;82.13;98453.28;5070382;28;20188;-70
2022/04/22 06:18:02;;;;;;;15.57;14.70;;;;;;;11.55;81.88;98458.34;5072176;28;20072;-70
2022/04/22 06:20:29;;;;;;;15.87;14.87;;;;;;;11.56;81.72;98441.25;5074132;28;20088;-70
2022/04/22 06:22:56;;;;;;;16.67;15.13;;;;;;;11.59;81.80;98451.75;5073317;28;20080;-69
2022/04/22 06:25:25;;;;;;;15.33;14.10;;;;;;;11.49;81.76;98443.75;5072823;28;20048;-69
2022/04/22 06:27:51;;;;;;;16.47;14.03;;;;;;;11.43;81.74;98447.91;5071398;28;20510;-69
2022/04/22 06:30:22;;;;;;;14.13;13.43;;;;;;;11.49;81.41;98454.13;5070407;28;20090;-69
2022/04/22 06:32:51;;;;;;;15.17;14.47;;;;;;;11.38;81.56;98436.91;5070889;28;20052;-73
2022/04/22 06:35:19;;;;;;;15.30;14.17;;;;;;;11.40;81.52;98445.78;5059790;28;20106;-69
2022/04/22 06:37:50;;;;;;;15.00;14.10;;;;;;;11.43;81.67;98464.66;5066421;28;20131;-70
2022/04/22 06:45:51;;;;;;;15.53;14.27;;;;;;;11.22;81.97;98438.66;5071768;28;20393;-70
2022/04/22 06:48:18;;;;;;;15.80;14.70;;;;;;;11.39;82.44;98452.53;5068148;28;20671;-67
2022/04/22 06:51:08;;;;;;;15.40;14.40;;;;;;;11.32;82.47;98452.25;5064822;28;20041;-72
2022/04/22 06:53:36;;;;;;;17.30;16.50;;;;;;;11.12;82.45;98429.47;5066655;28;20582;-74
2022/04/22 06:56:06;;;;;;;18.00;16.47;;;;;;;11.25;82.54;98446.38;5072798;28;20079;-74
2022/04/22 06:58:37;;;;;;;16.30;15.50;;;;;;;11.25;82.69;98443.56;5074950;28;20067;-74
2022/04/22 07:01:06;;;;;;;15.97;14.93;;;;;;;11.38;82.57;98459.25;5073295;28;20053;-73
2022/04/22 07:03:54;;;;;;;14.97;13.40;;;;;;;11.20;82.41;98429.78;5074422;28;20136;-73
2022/04/22 07:06:21;;;;;;;15.00;13.97;;;;;;;11.31;82.89;98431.03;5073635;28;20102;-73
2022/04/22 07:08:49;;;;;;;17.60;16.63;;;;;;;11.39;82.76;98433.78;5070646;28;20156;-73
2022/04/22 07:11:25;;;;;;;18.90;17.90;;;;;;;11.45;82.89;98442.78;5077011;28;20528;-73
2022/04/22 07:13:54;;;;;;;14.50;13.60;;;;;;;11.49;82.53;98440.97;5063454;28;20080;-74
2022/04/22 07:16:21;;;;;;;12.30;11.70;;;;;;;11.28;82.53;98423.31;5065566;28;20119;-73
2022/04/22 07:18:48;;;;;;;13.67;12.90;;;;;;;11.39;82.42;98444.97;5073169;28;20045;-74
2022/04/22 07:21:15;;;;;;;13.20;12.47;;;;;;;11.35;82.35;98440.38;5071766;28;20565;-73
2022/04/22 07:23:42;;;;;;;13.90;13.20;;;;;;;11.40;82.41;98445.78;5074576;28;20135;-74
2022/04/22 07:26:10;;;;;;;14.53;13.07;;;;;;;11.47;82.41;98457.25;5086610;28;20041;-74
2022/04/22 07:28:38;;;;;;;16.07;15.10;;;;;;;11.26;82.15;98443.22;5073710;28;20053;-73
2022/04/22 07:31:08;;;;;;;13.97;12.40;;;;;;;11.28;82.28;98443.72;5071386;28;20067;-74
2022/04/22 07:33:35;;;;;;;12.20;11.70;;;;;;;11.37;82.17;98452.84;5071106;28;20070;-74
2022/04/22 07:36:03;;;;;;;12.97;12.00;;;;;;;11.26;82.24;98434.84;5068913;28;20143;-73
2022/04/22 07:38:30;;;;;;;12.43;11.73;;;;;;;11.32;82.49;98449.44;5068870;28;20147;-74
2022/04/22 07:40:57;;;;;;;11.63;11.13;;;;;;;11.26;82.27;98448.00;5062215;28;20140;-72
2022/04/22 07:48:57;;;;;;;13.80;12.13;;;;;;;11.30;82.73;98430.22;5070880;28;20431;-74
2022/04/22 07:51:27;;;;;;;12.37;11.77;;;;;;;11.26;83.12;98420.06;5065273;28;20503;-74
2022/04/22 07:53:55;;;;;;;13.68;12.77;;;;;;;11.51;83.20;98441.41;5068698;28;20184;-73
2022/04/22 07:56:23;;;;;;;12.17;11.47;;;;;;;11.48;83.47;98419.75;5066829;28;20098;-75
2022/04/22 07:58:50;;;;;;;12.97;12.07;;;;;;;11.76;83.65;98442.44;5071053;28;20078;-74
2022/04/22 08:01:18;;;;;;;13.80;12.80;;;;;;;11.66;83.67;98420.47;5071022;28;20227;-77
2022/04/22 08:03:45;;;;;;;13.93;13.00;;;;;;;11.51;83.79;98402.28;5064503;28;20086;-71
2022/04/22 08:06:13;;;;;;;13.13;12.53;;;;;;;11.55;83.44;98431.19;5068669;28;20143;-75
2022/04/22 08:08:40;;;;;;;14.00;12.97;;;;;;;11.70;83.61;98442.97;5064084;28;20072;-72
2022/04/22 08:11:07;;;;;;;13.53;12.53;;;;;;;11.57;83.39;98428.09;5070324;28;20419;-77
2022/04/22 08:13:35;;;;;;;12.33;11.73;;;;;;;11.65;83.35;98429.97;5065257;28;20102;-70
2022/04/22 08:16:03;;;;;;;13.30;12.20;;;;;;;11.50;83.22;98425.81;5060278;28;20102;-71
2022/04/22 08:18:30;;;;;;;14.93;13.63;;;;;;;11.69;83.19;98430.13;5068483;28;20491;-69
2022/04/22 08:20:57;;;;;;;14.17;13.23;;;;;;;11.88;83.24;98438.91;5063613;28;20048;-70
2022/04/22 08:23:24;;;;;;;15.07;13.53;;;;;;;12.04;83.58;98420.34;5070586;28;20127;-72
2022/04/22 08:25:51;;;;;;;11.80;11.20;;;;;;;12.27;83.75;98431.16;5070386;28;20139;-69
2022/04/22 08:28:18;;;;;;;10.70;10.20;;;;;;;11.79;82.87;98396.16;5071949;28;20547;-71
2022/04/22 08:30:45;;;;;;;13.07;12.30;;;;;;;12.02;82.67;98438.63;5071544;28;20480;-71
2022/04/22 08:33:12;;;;;;;12.77;11.80;;;;;;;11.68;82.49;98408.94;5069073;28;20052;-70
2022/04/22 08:35:39;;;;;;;12.50;11.90;;;;;;;11.69;81.93;98428.19;5067444;28;20047;-71
2022/04/22 08:38:09;;;;;;;11.20;10.70;;;;;;;11.59;82.02;98432.19;5067781;28;20049;-70
2022/04/22 08:40:39;;;;;;;13.35;12.55;;;;;;;11.47;82.08;98418.09;5069504;28;20072;-74
2022/04/22 08:43:06;;;;;;;12.13;11.02;;;;;;;11.40;82.13;98395.47;5066343;28;20052;-73
2022/04/22 08:45:33;;;;;;;14.33;12.90;;;;;;;11.63;82.23;98409.97;5067971;28;20114;-75
2022/04/22 08:50:51;;;;;;;13.40;12.10;;;;;;;11.61;81.83;98424.25;5066372;28;20056;-75
2022/04/22 08:53:23;;;;;;;15.03;13.57;;;;;;;11.60;82.07;98417.03;5063203;28;20519;-76
2022/04/22 08:55:57;;;;;;;12.50;11.77;;;;;;;11.63;82.00;98401.56;5061521;28;20079;-76
2022/04/22 08:58:27;;;;;;;11.37;10.40;;;;;;;11.62;82.29;98425.91;5070440;28;20375;-76
2022/04/22 09:00:57;;;;;;;12.98;11.50;;;;;;;11.69;82.24;98430.13;5069347;28;20441;-75
2022/04/22 09:03:29;;;;;;;11.47;10.83;;;;;;;11.52;81.99;98414.28;5064543;28;20044;-75
2022/04/22 09:05:56;;;;;;;14.83;13.33;;;;;;;11.50;81.95;98434.22;5070651;28;20052;-76
2022/04/22 09:08:28;;;;;;;12.33;11.43;;;;;;;11.40;81.81;98431.81;5070569;28;20040;-76
2022/04/22 09:10:56;;;;;;;13.50;12.30;;;;;;;11.42;82.28;98442.63;5065837;28;20060;-75
2022/04/22 09:13:30;;;;;;;12.13;11.03;;;;;;;11.46;81.72;98438.03;5067657;28;20044;-76
2022/04/22 09:15:59;;;;;;;17.23;15.80;;;;;;;11.29;82.19;98459.31;5081884;28;20060;-76
2022/04/22 09:18:41;;;;;;;18.53;17.20;;;;;;;11.04;81.78;98430.34;5061293;28;20052;-76
2022/04/22 09:21:15;;;;;;;17.07;16.10;;;;;;;10.98;81.66;98417.72;5066105;28;20052;-76
2022/04/22 09:23:42;;;;;;;22.60;21.60;;;;;;;10.70;81.96;98433.25;5080248;28;20140;-77
2022/04/22 09:26:24;;;;;;;22.47;20.67;;;;;;;10.64;81.92;98436.25;5074919;28;20056;-76
2022/04/22 09:29:02;;;;;;;20.40;19.00;;;;;;;10.85;82.16;98469.84;5087345;28;20041;-76
2022/04/22 09:31:29;;;;;;;24.43;22.83;;;;;;;10.68;82.13;98453.97;5086914;28;20037;-77
2022/04/22 09:33:56;;;;;;;26.60;24.70;;;;;;;10.61;82.34;98459.22;5097500;28;20076;-76
2022/04/22 09:45:06;;;;;;;26.67;25.17;;;;;;;10.39;83.41;98460.28;5090548;28;20078;-76
2022/04/22 09:47:35;;;;;;;25.98;24.67;;;;;;;10.42;83.30;98455.97;5070355;28;20052;-75
2022/04/22 09:50:10;;;;;;;30.10;28.50;;;;;;;10.25;83.44;98428.06;5074240;28;20519;-78
2022/04/22 09:52:43;;;;;;;32.37;30.60;;;;;;;10.30;83.29;98442.72;5068883;28;20048;-79
2022/04/22 09:55:16;;;;;;;30.33;28.37;;;;;;;10.11;83.60;98451.38;5071385;28;20074;-77
2022/04/22 09:57:55;;;;;;;31.97;29.80;;;;;;;9.79;84.02;98404.50;5065436;28;20068;-77
2022/04/22 10:00:24;;;;;;;29.70;28.00;;;;;;;10.09;84.12;98464.84;5069659;28;20080;-78
2022/04/22 10:02:52;;;;;;;30.30;28.27;;;;;;;10.07;83.97;98439.25;5068801;28;20568;-80
2022/04/22 10:05:22;;;;;;;29.57;26.97;;;;;;;10.30;84.12;98458.63;5064206;28;20048;-79
2022/04/22 10:07:57;;;;;;;33.50;31.35;;;;;;;9.87;84.98;98437.13;5068321;28;20068;-79
2022/04/22 10:10:42;;;;;;;30.57;28.97;;;;;;;10.05;84.84;98440.72;5068679;28;20049;-78
2022/04/22 10:13:18;;;;;;;32.03;30.13;;;;;;;10.09;85.13;98420.22;5074249;28;20392;-80
2022/04/22 10:15:52;;;;;;;35.37;32.93;;;;;;;10.09;85.74;98411.88;5074119;28;20389;-80
2022/04/22 10:18:20;;;;;;;31.77;29.53;;;;;;;10.43;85.77;98432.53;5072066;28;20102;-80
2022/04/22 10:20:48;;;;;;;29.90;28.00;;;;;;;10.31;85.77;98410.06;5071087;28;20557;-79
2022/04/22 10:23:15;;;;;;;26.17;24.70;;;;;;;10.55;85.64;98421.47;5064178;28;20079;-77
2022/04/22 10:25:42;;;;;;;18.73;17.83;;;;;;;10.77;85.40;98398.13;5065060;28;20056;-76
2022/04/22 10:28:10;;;;;;;15.00;14.23;;;;;;;11.00;85.20;98381.88;5065337;28;20049;-75
2022/04/22 10:30:42;;;;;;;12.30;11.80;;;;;;;11.26;83.60;98380.94;5068544;28;20146;-76
2022/04/22 10:33:10;;;;;;;12.33;11.80;;;;;;;11.61;83.19;98373.94;5067423;28;20061;-77
2022/04/22 10:35:42;;;;;;;13.07;12.43;;;;;;;11.91;82.84;98381.47;5073082;28;20076;-76
2022/04/22 10:38:27;;;;;;;13.43;12.70;;;;;;;12.61;82.32;98382.38;5065864;28;20450;-75
2022/04/22 10:40:54;;;;;;;13.40;12.70;;;;;;;13.09;82.52;98382.78;5073072;28;20462;-75
2022/04/22 10:43:27;;;;;;;13.60;12.60;;;;;;;13.12;82.05;98377.31;5067076;28;20143;-74
2022/04/22 10:49:13;;;;;;;15.93;15.18;;;;;;;13.11;80.58;98383.28;5070324;28;20106;-76
2022/04/22 10:52:11;;;;;;;12.50;11.70;;;;;;;12.98;79.44;98402.06;5061614;28;20090;-76
2022/04/22 10:54:53;;;;;;;12.70;11.90;;;;;;;13.04;79.09;98390.25;5070501;28;20595;-76
2022/04/22 10:57:32;;;;;;;11.47;10.97;;;;;;;13.41;78.92;98390.28;5071818;28;20114;-75
2022/04/22 11:00:27;;;;;;;11.90;11.30;;;;;;;14.55;78.26;98383.63;5072409;28;20135;-74
2022/04/22 11:03:04;;;;;;;9.63;9.23;;;;;;;14.93;78.78;98380.19;5065945;28;20040;-75
2022/04/22 11:05:31;;;;;;;10.77;10.17;;;;;;;15.10;79.34;98382.63;5070399;28;20061;-73
2022/04/22 11:07:58;;;;;;;11.30;10.67;;;;;;;14.90;77.31;98362.06;5068916;28;20105;-75
2022/04/22 11:10:26;;;;;;;10.60;10.10;;;;;;;14.65;76.38;98361.44;5055958;28;20463;-75
2022/04/22 11:12:54;;;;;;;11.97;11.47;;;;;;;14.37;76.37;98361.44;5066227;28;20053;-76
2022/04/22 11:15:43;;;;;;;9.77;9.30;;;;;;;14.03;74.79;98357.28;5069939;28;20467;-75
2022/04/22 11:18:11;;;;;;;10.50;9.90;;;;;;;13.79;74.39;98360.19;5069358;28;20080;-73
2022/04/22 11:20:45;;;;;;;10.37;9.90;;;;;;;13.82;75.50;98357.47;5070278;28;20143;-74
2022/04/22 11:23:13;;;;;;;11.53;10.83;;;;;;;13.69;76.27;98342.66;5068211;28;20079;-75
2022/04/22 11:25:41;;;;;;;10.20;9.70;;;;;;;13.78;75.96;98356.56;5067071;28;20080;-74
2022/04/22 11:28:09;;;;;;;10.67;10.17;;;;;;;13.66;75.97;98348.19;5066970;28;20083;-73
2022/04/22 11:30:37;;;;;;;12.40;11.70;;;;;;;13.60;76.43;98333.56;5070728;28;20131;-75
2022/04/22 11:33:09;;;;;;;10.50;10.00;;;;;;;14.02;77.37;98344.44;5064520;28;20556;-73
2022/04/22 11:35:37;;;;;;;11.07;10.47;;;;;;;14.30;78.04;98304.28;5066049;28;20052;-73
2022/04/22 11:38:04;;;;;;;9.90;9.40;;;;;;;14.69;78.97;98300.53;5077803;28;20119;-74
2022/04/22 11:40:37;;;;;;;10.20;9.60;;;;;;;15.34;79.24;98336.63;5079627;28;20159;-73
2022/04/22 11:43:18;;;;;;;9.80;9.30;;;;;;;15.11;76.96;98301.94;5067224;28;20075;-75
2022/04/22 11:45:46;;;;;;;9.50;8.90;;;;;;;14.66;75.41;98312.47;5069829;28;20044;-74
2022/04/22 11:48:18;;;;;;;11.10;10.40;;;;;;;14.59;76.40;98329.16;5065841;28;20052;-74
2022/04/22 11:50:46;;;;;;;11.33;10.73;;;;;;;14.44;75.16;98305.47;5064257;28;20128;-74
2022/04/22 11:53:14;;;;;;;9.48;8.57;;;;;;;15.05;78.37;98306.22;5071366;28;20088;-74
2022/04/22 11:55:45;;;;;;;11.60;10.80;;;;;;;15.34;78.65;98319.75;5069161;28;20048;-74
2022/04/22 11:58:13;;;;;;;7.90;7.50;;;;;;;15.50;78.12;98324.53;5069117;28;20060;-75
2022/04/22 12:06:21;;;;;;;10.07;9.57;;;;;;;15.90;76.26;98303.69;5067687;28;20569;-74
2022/04/22 12:08:52;;;;;;;8.60;8.10;;;;;;;16.19;75.94;98297.44;5071394;28;20120;-75
2022/04/22 12:11:19;;;;;;;8.52;8.13;;;;;;;16.47;75.56;98296.34;5072397;28;20131;-75
2022/04/22 12:13:47;;;;;;;8.57;8.18;;;;;;;16.79;74.65;98274.41;5070528;28;20384;-75
2022/04/22 12:16:25;;;;;;;8.63;8.13;;;;;;;17.37;73.07;98282.53;5063191;28;20096;-74
2022/04/22 12:18:54;;;;;;;10.23;9.63;;;;;;;17.95;74.13;98278.50;5067783;28;20052;-75
2022/04/22 12:21:23;;;;;;;7.95;7.55;;;;;;;18.28;73.89;98280.44;5069476;28;20479;-74
2022/04/22 12:23:52;;;;;;;8.13;7.63;;;;;;;18.19;73.77;98272.31;5062849;28;20410;-75
2022/04/22 12:26:26;;;;;;;8.77;8.32;;;;;;;17.83;74.08;98253.31;5067594;28;20083;-75
2022/04/22 12:29:00;;;;;;;8.27;7.43;;;;;;;17.55;74.82;98293.25;5072664;28;20136;-75